Welcome to our Virtual Airline
Sign-in:

Flight MFC36851

  • Submitted By: Georg Werderitsch
  • Departure Airport: Port Lions (ORI)
  • Arrival Airport: Port Williams SPB (KPR)
  • Aircraft: DHC2 BEAVERF (N002MM_FL)
  • Flight Time: 00.19.24
  • Date Submitted: 2019/03/09
  • Route: NO STOPS
  • Status: Accepted
Flight Details
Gross Revenue:
(5 load / $ 61.00 per unit
$ 305.00
Fuel Cost:
(35.8338 fuel used @ 5.1 / unit)
$ 182.75

Additional Log Information:

View Log

FS[13:53] ----- Flight Opened -----
FS[13:53] Cigar Box - 1.1.4.0
FS[13:53] FS: FSX
FS[13:53] FSUIPC: v4,973
FS[13:53] Flight Number: MFC36851
FS[13:53] FS Aircraft: DHC-2A N001MM New Misty Amphibian
FS[13:53] FS Model: DHC2
FS[13:53] FS Type: DeHavilland
FS[13:53] Departure: ORI
FS[13:53] Arrival: KPR
FS[13:53] Flight Level: 3500
FS[13:53] Flight Type: H
FS[13:53] Passengers: 5
FS[13:53] FOB: 570 lbs
FS[13:53] Gate: n/a
FS[13:53] NOTE: Parking Brake Ignored
FS[13:53] Crash Detection: Disabled
FS[13:53] Crash Detection Aircraft: Disabled
FS[13:53] NOTE: Boarding has started
FS[13:53] Engines: 1 Piston
FS[13:53] Autopilot: Engaged
FS[13:53] AGL: 10 ft
FS[13:53] AMSL: 59 ft
FS[13:53] Light Data: Beacon ON
FS[13:53] Main Door Closed
FS[13:53] COM1: 128.30
FS[13:53] COM2: 127.80
FS[13:53] Transponder: 1200
FS[13:53] NAV1: 113.70
FS[13:53] NAV2: 110.60
FS[13:53] ADF1: 284.0
FS[13:53] ADF2: 240.0
FS[13:53] Navigation Mode: NAV
FS[13:53] Engine 1: Started
FS[13:53] Flaps: Position 1
FS[13:53] NOTE: Taxi started
FS[13:54] NOTE: ----- TAKE OFF -----
FS[13:54] GS: 75 knots
FS[13:54] TAS: 79 knots
FS[13:54] IAS: 78 knots
FS[13:54] VS: 36 fpm
FS[13:54] FOB: 568 lbs
FS[13:54] Heading: 53°
FS[13:54] Pitch: 8°
FS[13:54] Bank: -3°
FS[13:54] Aircraft Weight: 4338,24 lbs
FS[13:54] Nearest Airport: ORI
FS[13:54] Distance: 0,11 miles
FS[13:54] Runway: 6 - ORI
FS[13:54] Ground Surface: Gravel
FS[13:54] Ground Condition: Normal
FS[13:54] NOTE: Weather Report
FS[13:54] Wind Heading: 347°
FS[13:54] Wind Speed: 10 knots
FS[13:54] OAT: 17° C
FS[13:54] TAT: 18° C
FS[13:54] Precipitation: None
FS[13:54] Dew Point: 11° C
FS[13:54] Visibility: 29 miles
FS[13:54] METAR: No METAR available for ORI.
FS[13:54] NOTE: Climb started
FS[13:54] Flaps: Position 0
FS[13:54] GS: 77 knots
FS[13:54] TAS: 81 knots
FS[13:54] IAS: 80 knots
FS[13:54] VS: 1158 fpm
FS[13:54] View Mode: Virtual Cockpit
FS[13:55] Recovery: Flight Saved
FS[13:56] NOTE: TOC reached
FS[13:56] NOTE: Cruise started
FS[13:56] GS: 112 knots
FS[13:56] TAS: 128 knots
FS[13:56] IAS: 122 knots
FS[13:56] VS: 196 fpm
FS[13:56] FOB: 556 lbs
FS[13:56] Heading: 350°
FS[13:56] Pitch: 1°
FS[13:56] Bank: 0°
FS[13:56] Aircraft Weight: 4326,47 lbs
FS[13:56] Landing Gear: Retracted
FS[13:56] GS: 130 knots
FS[13:56] TAS: 140 knots
FS[13:56] IAS: 134 knots
FS[13:56] VS: -42 fpm
FS[13:56] AGL: 2379 ft
FS[13:56] AMSL: 2608 ft
FS[13:59] Recovery: Flight Saved
FS[14:03] Recovery: Flight Saved
FS[14:07] Recovery: Flight Saved
FS[14:08] NOTE: TOD reached
FS[14:08] NOTE: Descent started
FS[14:08] GS: 139 knots
FS[14:08] TAS: 151 knots
FS[14:08] IAS: 145 knots
FS[14:08] VS: -419 fpm
FS[14:08] FOB: 501 lbs
FS[14:08] Heading: 351°
FS[14:08] Pitch: 2°
FS[14:08] Bank: 0°
FS[14:08] Aircraft Weight: 4271,23 lbs
FS[14:08] NOTE: On approach
FS[14:08] Overspeed: Encountered
FS[14:08] GS: 153 knots
FS[14:08] TAS: 171 knots
FS[14:08] IAS: 165 knots
FS[14:08] VS: -1427 fpm
FS[14:08] Overspeed: Corrected
FS[14:08] GS: 153 knots
FS[14:08] TAS: 165 knots
FS[14:08] IAS: 160 knots
FS[14:08] VS: -1388 fpm
FS[14:08] Overspeed: Encountered
FS[14:08] GS: 155 knots
FS[14:08] TAS: 175 knots
FS[14:08] IAS: 169 knots
FS[14:08] VS: -1284 fpm
FS[14:08] Overspeed: Corrected
FS[14:08] GS: 155 knots
FS[14:08] TAS: 166 knots
FS[14:08] IAS: 160 knots
FS[14:08] VS: -1041 fpm
FS[14:08] Overspeed: Encountered
FS[14:08] GS: 153 knots
FS[14:08] TAS: 169 knots
FS[14:08] IAS: 165 knots
FS[14:08] VS: -672 fpm
FS[14:08] Overspeed: Corrected
FS[14:08] GS: 151 knots
FS[14:08] TAS: 163 knots
FS[14:08] IAS: 158 knots
FS[14:08] VS: -602 fpm
FS[14:09] Overspeed: Encountered
FS[14:09] GS: 151 knots
FS[14:09] TAS: 170 knots
FS[14:09] IAS: 166 knots
FS[14:09] VS: -545 fpm
FS[14:09] Overspeed: Corrected
FS[14:09] GS: 151 knots
FS[14:09] TAS: 161 knots
FS[14:09] IAS: 157 knots
FS[14:09] VS: -513 fpm
FS[14:09] Overspeed: Encountered
FS[14:09] GS: 147 knots
FS[14:09] TAS: 165 knots
FS[14:09] IAS: 161 knots
FS[14:09] VS: -1044 fpm
FS[14:09] Overspeed: Corrected
FS[14:09] GS: 143 knots
FS[14:09] TAS: 155 knots
FS[14:09] IAS: 151 knots
FS[14:09] VS: -1071 fpm
FS[14:11] Flaps: Position 1
FS[14:11] GS: 97 knots
FS[14:11] TAS: 105 knots
FS[14:11] IAS: 103 knots
FS[14:11] VS: 445 fpm
FS[14:11] Flaps: Position 2
FS[14:11] GS: 73 knots
FS[14:11] TAS: 89 knots
FS[14:11] IAS: 88 knots
FS[14:11] VS: -536 fpm
FS[14:11] Flaps: Position 1
FS[14:11] GS: 54 knots
FS[14:11] TAS: 62 knots
FS[14:11] IAS: 61 knots
FS[14:11] VS: -263 fpm
FS[14:11] NOTE: ----- LANDED -----
FS[14:11] Landing Rate: -492,13 fpm
FS[14:11] GS: 48 knots
FS[14:11] TAS: 55 knots
FS[14:11] IAS: 54 knots
FS[14:11] VS: -490 fpm
FS[14:11] FOB: 491 lbs
FS[14:11] Heading: 275°
FS[14:11] Pitch: 7°
FS[14:11] Bank: 2°
FS[14:11] Aircraft Weight: 4261,34 lbs
FS[14:11] Nearest Airport: KPR
FS[14:11] Distance: 0,27 miles
FS[14:11] Runway: ???
FS[14:11] Ground Surface: Water
FS[14:11] Ground Condition: Normal
FS[14:11] NOTE: Weather Report
FS[14:11] Wind Heading: 331°
FS[14:11] Wind Speed: 10 knots
FS[14:11] OAT: 17° C
FS[14:11] TAT: 18° C
FS[14:11] Precipitation: None
FS[14:11] Dew Point: 11° C
FS[14:11] Visibility: 29 miles
FS[14:11] METAR: KPRB 090553Z AUTO 30005KT 10SM CLR 06/02 A3007 RMK AO2 SLP186 T00610022 10122 20056 50007KPRC 090553Z AUTO 13004KT 10SM CLR 00/M06 A2993 RMK AO2 SLP116 60000 T00001056 10072 20000 50010KPRG 090635Z AUTO 10004KT 10SM OVC014 03/01 A3007 RMK AO2 T00280007KPRN 090556Z AUTO 15003KT 10SM BKN007 OVC031 16/13 A3005 RMK AO2 SLP172 T01610133 10206 20161 402440111 58001KPRO 090635Z AUTO 13013KT 3SM BR OVC005 01/01 A2986 RMK AO2 T00060006KPRS 090635Z AUTO 28003KT 10SM CLR 17/06 A2985 RMK AO2 T01680056KPRX 090610Z AUTO 15010KT 10SM BKN018 19/17 A2973 RMK AO2 $
FS[14:11] View Mode: Virtual Cockpit
FS[14:11] NOTE: Taxi started
FS[14:13] Engine 1: Stopped
FS[14:13] Gate: n/a
FS[14:13] NOTE: Flight Completed
FS[14:13] FS Aircraft: DHC-2A N001MM New Misty Amphibian
FS[14:13] FS Model: DHC2
FS[14:13] FS Type: DeHavilland
FS[14:13] FOB: 491 lbs
FS[14:13] Fuel Used: 79 lbs
FS[14:13] Flight Time: 00:19:24
FS[14:13] Flight Time (Dawn): 00:00:00
FS[14:13] Flight Time (Day): 00:19:24
FS[14:13] Flight Time (Dusk): 00:00:00
FS[14:13] Flight Time (Night): 00:00:00
FS[14:13] Total Landings: 1
FS[14:13] MaxSim Rate: 0x
FS[14:13] Cigar Box - 1.1.4.0
FS[14:13] ----- Flight Closed -----

Route Map